sensor_id;sensor_type;location;lat;lon;timestamp;P1;durP1;ratioP1;P2;durP2;ratioP2
1320;SDS011;653;51.480;11.992;2023-11-18T00:01:26;2.87;;;2.43;;
1320;SDS011;653;51.480;11.992;2023-11-18T00:03:56;2.77;;;1.90;;
1320;SDS011;653;51.480;11.992;2023-11-18T00:06:21;3.57;;;2.33;;
1320;SDS011;653;51.480;11.992;2023-11-18T00:08:46;2.43;;;2.23;;
1320;SDS011;653;51.480;11.992;2023-11-18T00:11:12;4.07;;;2.57;;
1320;SDS011;653;51.480;11.992;2023-11-18T00:13:39;3.57;;;2.33;;
1320;SDS011;653;51.480;11.992;2023-11-18T00:16:05;6.00;;;2.13;;
1320;SDS011;653;51.480;11.992;2023-11-18T00:18:31;4.00;;;2.90;;
1320;SDS011;653;51.480;11.992;2023-11-18T00:20:57;3.63;;;2.43;;
1320;SDS011;653;51.480;11.992;2023-11-18T00:23:23;4.13;;;2.60;;
1320;SDS011;653;51.480;11.992;2023-11-18T00:25:52;4.40;;;3.70;;
1320;SDS011;653;51.480;11.992;2023-11-18T00:28:18;4.20;;;3.17;;
1320;SDS011;653;51.480;11.992;2023-11-18T00:30:45;4.40;;;3.10;;
1320;SDS011;653;51.480;11.992;2023-11-18T00:33:10;3.70;;;2.60;;
1320;SDS011;653;51.480;11.992;2023-11-18T00:35:36;3.80;;;3.20;;
1320;SDS011;653;51.480;11.992;2023-11-18T00:38:02;5.50;;;2.97;;
1320;SDS011;653;51.480;11.992;2023-11-18T00:40:27;3.10;;;2.47;;
1320;SDS011;653;51.480;11.992;2023-11-18T00:42:56;4.30;;;2.73;;
1320;SDS011;653;51.480;11.992;2023-11-18T00:45:22;6.77;;;3.73;;
1320;SDS011;653;51.480;11.992;2023-11-18T00:47:47;6.67;;;3.37;;
1320;SDS011;653;51.480;11.992;2023-11-18T00:50:13;6.57;;;4.40;;
1320;SDS011;653;51.480;11.992;2023-11-18T00:52:39;5.00;;;3.17;;
1320;SDS011;653;51.480;11.992;2023-11-18T00:55:09;6.50;;;4.10;;
1320;SDS011;653;51.480;11.992;2023-11-18T00:57:38;5.00;;;3.40;;
1320;SDS011;653;51.480;11.992;2023-11-18T01:00:05;5.70;;;3.33;;
1320;SDS011;653;51.480;11.992;2023-11-18T01:02:40;8.70;;;5.17;;
1320;SDS011;653;51.480;11.992;2023-11-18T01:05:07;5.97;;;3.87;;
1320;SDS011;653;51.480;11.992;2023-11-18T01:07:36;6.07;;;3.63;;
1320;SDS011;653;51.480;11.992;2023-11-18T01:10:02;5.17;;;3.70;;
1320;SDS011;653;51.480;11.992;2023-11-18T01:12:29;6.53;;;3.50;;
1320;SDS011;653;51.480;11.992;2023-11-18T01:14:54;3.73;;;2.90;;
1320;SDS011;653;51.480;11.992;2023-11-18T01:17:20;6.03;;;3.63;;
1320;SDS011;653;51.480;11.992;2023-11-18T01:19:47;4.10;;;3.30;;
1320;SDS011;653;51.480;11.992;2023-11-18T01:22:13;5.00;;;3.50;;
1320;SDS011;653;51.480;11.992;2023-11-18T01:24:39;4.83;;;3.33;;
1320;SDS011;653;51.480;11.992;2023-11-18T01:27:04;4.77;;;3.60;;
1320;SDS011;653;51.480;11.992;2023-11-18T01:29:30;5.60;;;4.00;;
1320;SDS011;653;51.480;11.992;2023-11-18T01:31:56;4.10;;;2.90;;
1320;SDS011;653;51.480;11.992;2023-11-18T01:34:22;4.23;;;3.10;;
1320;SDS011;653;51.480;11.992;2023-11-18T01:36:48;5.97;;;3.73;;
1320;SDS011;653;51.480;11.992;2023-11-18T01:39:17;5.70;;;3.93;;
1320;SDS011;653;51.480;11.992;2023-11-18T01:41:43;5.00;;;3.43;;
1320;SDS011;653;51.480;11.992;2023-11-18T01:44:10;3.77;;;3.30;;
1320;SDS011;653;51.480;11.992;2023-11-18T01:46:35;5.03;;;3.70;;
1320;SDS011;653;51.480;11.992;2023-11-18T01:49:01;5.57;;;3.90;;
1320;SDS011;653;51.480;11.992;2023-11-18T01:51:29;6.83;;;3.93;;
1320;SDS011;653;51.480;11.992;2023-11-18T01:53:55;4.60;;;3.60;;
1320;SDS011;653;51.480;11.992;2023-11-18T01:56:22;5.20;;;4.03;;
1320;SDS011;653;51.480;11.992;2023-11-18T01:58:50;5.07;;;3.80;;
1320;SDS011;653;51.480;11.992;2023-11-18T02:01:16;7.77;;;4.20;;
1320;SDS011;653;51.480;11.992;2023-11-18T02:03:43;5.27;;;3.67;;
1320;SDS011;653;51.480;11.992;2023-11-18T02:06:09;4.10;;;3.70;;
1320;SDS011;653;51.480;11.992;2023-11-18T02:08:36;6.93;;;3.60;;
1320;SDS011;653;51.480;11.992;2023-11-18T02:11:05;5.10;;;4.30;;
1320;SDS011;653;51.480;11.992;2023-11-18T02:13:47;6.20;;;4.27;;
1320;SDS011;653;51.480;11.992;2023-11-18T02:16:14;6.20;;;4.40;;
1320;SDS011;653;51.480;11.992;2023-11-18T02:18:42;6.37;;;4.57;;
1320;SDS011;653;51.480;11.992;2023-11-18T02:21:08;5.73;;;3.90;;
1320;SDS011;653;51.480;11.992;2023-11-18T02:23:34;6.40;;;4.40;;
1320;SDS011;653;51.480;11.992;2023-11-18T02:26:00;6.63;;;4.60;;
1320;SDS011;653;51.480;11.992;2023-11-18T02:28:31;5.63;;;4.30;;
1320;SDS011;653;51.480;11.992;2023-11-18T02:31:00;6.40;;;5.27;;
1320;SDS011;653;51.480;11.992;2023-11-18T02:36:10;6.00;;;4.87;;
1320;SDS011;653;51.480;11.992;2023-11-18T02:38:41;6.80;;;5.20;;
1320;SDS011;653;51.480;11.992;2023-11-18T02:41:11;6.73;;;5.57;;
1320;SDS011;653;51.480;11.992;2023-11-18T02:43:38;6.73;;;4.70;;
1320;SDS011;653;51.480;11.992;2023-11-18T02:46:05;7.80;;;4.87;;
1320;SDS011;653;51.480;11.992;2023-11-18T02:48:32;9.33;;;5.80;;
1320;SDS011;653;51.480;11.992;2023-11-18T02:50:58;8.40;;;5.30;;
1320;SDS011;653;51.480;11.992;2023-11-18T02:53:25;7.37;;;5.00;;
1320;SDS011;653;51.480;11.992;2023-11-18T02:55:51;6.20;;;4.93;;
1320;SDS011;653;51.480;11.992;2023-11-18T02:58:20;6.90;;;4.53;;
1320;SDS011;653;51.480;11.992;2023-11-18T03:00:46;8.13;;;5.17;;
1320;SDS011;653;51.480;11.992;2023-11-18T03:03:12;7.20;;;4.63;;
1320;SDS011;653;51.480;11.992;2023-11-18T03:05:39;6.57;;;4.73;;
1320;SDS011;653;51.480;11.992;2023-11-18T03:08:04;6.13;;;4.30;;
1320;SDS011;653;51.480;11.992;2023-11-18T03:10:34;6.50;;;4.20;;
1320;SDS011;653;51.480;11.992;2023-11-18T03:13:01;8.23;;;4.40;;
1320;SDS011;653;51.480;11.992;2023-11-18T03:15:26;12.50;;;11.17;;
1320;SDS011;653;51.480;11.992;2023-11-18T03:17:54;7.47;;;6.30;;
1320;SDS011;653;51.480;11.992;2023-11-18T03:20:21;7.87;;;5.33;;
1320;SDS011;653;51.480;11.992;2023-11-18T03:22:48;5.70;;;4.40;;
1320;SDS011;653;51.480;11.992;2023-11-18T03:25:18;8.80;;;5.67;;
1320;SDS011;653;51.480;11.992;2023-11-18T03:27:47;11.77;;;6.37;;
1320;SDS011;653;51.480;11.992;2023-11-18T03:30:13;7.07;;;5.43;;
1320;SDS011;653;51.480;11.992;2023-11-18T03:32:39;7.30;;;5.60;;
1320;SDS011;653;51.480;11.992;2023-11-18T03:35:05;5.83;;;4.23;;
1320;SDS011;653;51.480;11.992;2023-11-18T03:37:35;9.47;;;5.53;;
1320;SDS011;653;51.480;11.992;2023-11-18T03:40:05;10.00;;;6.63;;
1320;SDS011;653;51.480;11.992;2023-11-18T03:42:43;10.13;;;6.47;;
1320;SDS011;653;51.480;11.992;2023-11-18T03:45:12;8.00;;;6.10;;
1320;SDS011;653;51.480;11.992;2023-11-18T03:47:42;9.50;;;6.80;;
1320;SDS011;653;51.480;11.992;2023-11-18T03:50:09;11.03;;;7.40;;
1320;SDS011;653;51.480;11.992;2023-11-18T03:52:38;11.20;;;7.20;;
1320;SDS011;653;51.480;11.992;2023-11-18T03:55:05;10.87;;;7.13;;
1320;SDS011;653;51.480;11.992;2023-11-18T03:57:31;9.67;;;6.37;;
1320;SDS011;653;51.480;11.992;2023-11-18T03:59:57;9.17;;;6.37;;
1320;SDS011;653;51.480;11.992;2023-11-18T04:02:22;13.50;;;8.10;;
1320;SDS011;653;51.480;11.992;2023-11-18T04:04:48;10.43;;;7.03;;
1320;SDS011;653;51.480;11.992;2023-11-18T04:07:13;10.60;;;8.10;;
1320;SDS011;653;51.480;11.992;2023-11-18T04:09:40;11.23;;;7.40;;
1320;SDS011;653;51.480;11.992;2023-11-18T04:12:07;13.10;;;7.23;;
1320;SDS011;653;51.480;11.992;2023-11-18T04:14:33;11.80;;;9.27;;
1320;SDS011;653;51.480;11.992;2023-11-18T04:16:58;14.70;;;9.07;;
1320;SDS011;653;51.480;11.992;2023-11-18T04:19:24;13.40;;;8.97;;
1320;SDS011;653;51.480;11.992;2023-11-18T04:21:50;16.27;;;10.53;;
1320;SDS011;653;51.480;11.992;2023-11-18T04:24:16;15.63;;;10.50;;
1320;SDS011;653;51.480;11.992;2023-11-18T04:26:42;16.10;;;11.20;;
1320;SDS011;653;51.480;11.992;2023-11-18T04:29:07;12.67;;;9.43;;
1320;SDS011;653;51.480;11.992;2023-11-18T04:31:33;13.13;;;9.37;;
1320;SDS011;653;51.480;11.992;2023-11-18T04:34:02;16.33;;;11.17;;
1320;SDS011;653;51.480;11.992;2023-11-18T04:36:29;17.50;;;11.77;;
1320;SDS011;653;51.480;11.992;2023-11-18T04:38:56;14.47;;;10.77;;
1320;SDS011;653;51.480;11.992;2023-11-18T04:41:23;15.57;;;11.43;;
1320;SDS011;653;51.480;11.992;2023-11-18T04:43:49;19.03;;;13.10;;
1320;SDS011;653;51.480;11.992;2023-11-18T04:46:15;21.63;;;14.90;;
1320;SDS011;653;51.480;11.992;2023-11-18T04:48:41;23.90;;;14.67;;
1320;SDS011;653;51.480;11.992;2023-11-18T04:51:08;21.80;;;14.03;;
1320;SDS011;653;51.480;11.992;2023-11-18T04:53:35;21.00;;;12.97;;
1320;SDS011;653;51.480;11.992;2023-11-18T04:56:01;21.50;;;15.67;;
1320;SDS011;653;51.480;11.992;2023-11-18T04:58:28;22.43;;;15.27;;
1320;SDS011;653;51.480;11.992;2023-11-18T05:00:53;19.73;;;14.70;;
1320;SDS011;653;51.480;11.992;2023-11-18T05:03:19;23.00;;;14.83;;
1320;SDS011;653;51.480;11.992;2023-11-18T05:05:45;24.50;;;14.60;;
1320;SDS011;653;51.480;11.992;2023-11-18T05:08:18;27.60;;;15.27;;
1320;SDS011;653;51.480;11.992;2023-11-18T05:10:48;24.93;;;16.53;;
1320;SDS011;653;51.480;11.992;2023-11-18T05:13:14;23.80;;;16.07;;
1320;SDS011;653;51.480;11.992;2023-11-18T05:15:44;25.90;;;16.27;;
1320;SDS011;653;51.480;11.992;2023-11-18T05:18:11;25.40;;;15.83;;
1320;SDS011;653;51.480;11.992;2023-11-18T05:20:40;23.07;;;15.43;;
1320;SDS011;653;51.480;11.992;2023-11-18T05:23:08;25.17;;;16.90;;
1320;SDS011;653;51.480;11.992;2023-11-18T05:25:37;25.37;;;16.23;;
1320;SDS011;653;51.480;11.992;2023-11-18T05:28:05;23.90;;;15.87;;
1320;SDS011;653;51.480;11.992;2023-11-18T05:30:33;20.00;;;15.07;;
1320;SDS011;653;51.480;11.992;2023-11-18T05:33:01;25.63;;;15.40;;
1320;SDS011;653;51.480;11.992;2023-11-18T05:35:30;24.40;;;14.57;;
1320;SDS011;653;51.480;11.992;2023-11-18T05:37:56;26.17;;;16.37;;
1320;SDS011;653;51.480;11.992;2023-11-18T05:40:22;28.50;;;16.67;;
1320;SDS011;653;51.480;11.992;2023-11-18T05:42:48;24.20;;;14.97;;
1320;SDS011;653;51.480;11.992;2023-11-18T05:45:17;22.17;;;14.00;;
1320;SDS011;653;51.480;11.992;2023-11-18T05:47:56;26.83;;;17.40;;
1320;SDS011;653;51.480;11.992;2023-11-18T05:50:22;23.07;;;15.20;;
1320;SDS011;653;51.480;11.992;2023-11-18T05:52:50;22.10;;;15.73;;
1320;SDS011;653;51.480;11.992;2023-11-18T05:55:15;25.77;;;15.20;;
1320;SDS011;653;51.480;11.992;2023-11-18T05:57:41;26.70;;;14.90;;
1320;SDS011;653;51.480;11.992;2023-11-18T06:00:11;26.10;;;16.70;;
1320;SDS011;653;51.480;11.992;2023-11-18T06:02:43;20.07;;;14.20;;
1320;SDS011;653;51.480;11.992;2023-11-18T06:05:16;26.43;;;16.83;;
1320;SDS011;653;51.480;11.992;2023-11-18T06:07:42;22.87;;;16.33;;
1320;SDS011;653;51.480;11.992;2023-11-18T06:10:08;25.40;;;15.60;;
1320;SDS011;653;51.480;11.992;2023-11-18T06:12:34;21.10;;;15.40;;
1320;SDS011;653;51.480;11.992;2023-11-18T06:15:02;29.63;;;15.27;;
1320;SDS011;653;51.480;11.992;2023-11-18T06:17:27;23.10;;;15.80;;
1320;SDS011;653;51.480;11.992;2023-11-18T06:19:53;22.70;;;15.23;;
1320;SDS011;653;51.480;11.992;2023-11-18T06:22:18;28.60;;;16.83;;
1320;SDS011;653;51.480;11.992;2023-11-18T06:24:45;25.73;;;15.33;;
1320;SDS011;653;51.480;11.992;2023-11-18T06:27:10;24.70;;;15.63;;
1320;SDS011;653;51.480;11.992;2023-11-18T06:29:37;29.73;;;17.10;;
1320;SDS011;653;51.480;11.992;2023-11-18T06:32:03;23.80;;;16.20;;
1320;SDS011;653;51.480;11.992;2023-11-18T06:34:31;26.57;;;15.30;;
1320;SDS011;653;51.480;11.992;2023-11-18T06:36:57;22.20;;;14.63;;
1320;SDS011;653;51.480;11.992;2023-11-18T06:39:23;26.37;;;15.40;;
1320;SDS011;653;51.480;11.992;2023-11-18T06:41:54;27.20;;;16.60;;
1320;SDS011;653;51.480;11.992;2023-11-18T06:44:22;25.07;;;16.27;;
1320;SDS011;653;51.480;11.992;2023-11-18T06:46:49;27.67;;;18.80;;
1320;SDS011;653;51.480;11.992;2023-11-18T06:49:16;26.07;;;16.53;;
1320;SDS011;653;51.480;11.992;2023-11-18T06:51:42;23.77;;;15.57;;
1320;SDS011;653;51.480;11.992;2023-11-18T06:54:08;23.90;;;15.60;;
1320;SDS011;653;51.480;11.992;2023-11-18T06:56:42;24.93;;;16.83;;
1320;SDS011;653;51.480;11.992;2023-11-18T06:59:08;23.90;;;15.77;;
1320;SDS011;653;51.480;11.992;2023-11-18T07:01:35;21.10;;;14.50;;
1320;SDS011;653;51.480;11.992;2023-11-18T07:04:01;28.63;;;16.50;;
1320;SDS011;653;51.480;11.992;2023-11-18T07:06:27;22.43;;;15.30;;
1320;SDS011;653;51.480;11.992;2023-11-18T07:08:53;27.33;;;16.77;;
1320;SDS011;653;51.480;11.992;2023-11-18T07:11:20;23.53;;;15.90;;
1320;SDS011;653;51.480;11.992;2023-11-18T07:13:49;27.30;;;15.97;;
1320;SDS011;653;51.480;11.992;2023-11-18T07:16:15;29.57;;;17.20;;
1320;SDS011;653;51.480;11.992;2023-11-18T07:18:40;28.17;;;16.93;;
1320;SDS011;653;51.480;11.992;2023-11-18T07:21:07;24.70;;;15.53;;
1320;SDS011;653;51.480;11.992;2023-11-18T07:23:34;24.30;;;15.73;;
1320;SDS011;653;51.480;11.992;2023-11-18T07:26:00;24.90;;;16.00;;
1320;SDS011;653;51.480;11.992;2023-11-18T07:28:27;24.97;;;15.83;;
1320;SDS011;653;51.480;11.992;2023-11-18T07:30:53;28.53;;;17.37;;
1320;SDS011;653;51.480;11.992;2023-11-18T07:33:20;39.43;;;18.60;;
1320;SDS011;653;51.480;11.992;2023-11-18T07:35:46;28.70;;;17.03;;
1320;SDS011;653;51.480;11.992;2023-11-18T07:38:14;26.80;;;17.00;;
1320;SDS011;653;51.480;11.992;2023-11-18T07:40:41;26.20;;;17.23;;
1320;SDS011;653;51.480;11.992;2023-11-18T07:43:13;26.37;;;17.97;;
1320;SDS011;653;51.480;11.992;2023-11-18T07:45:39;27.20;;;17.90;;
1320;SDS011;653;51.480;11.992;2023-11-18T07:48:06;29.03;;;17.03;;
1320;SDS011;653;51.480;11.992;2023-11-18T07:50:36;26.07;;;17.37;;
1320;SDS011;653;51.480;11.992;2023-11-18T07:53:03;26.90;;;15.20;;
1320;SDS011;653;51.480;11.992;2023-11-18T07:55:31;27.73;;;15.63;;
1320;SDS011;653;51.480;11.992;2023-11-18T07:58:00;26.67;;;15.33;;
1320;SDS011;653;51.480;11.992;2023-11-18T08:00:29;25.17;;;16.10;;
1320;SDS011;653;51.480;11.992;2023-11-18T08:02:59;24.73;;;16.77;;
1320;SDS011;653;51.480;11.992;2023-11-18T08:05:28;26.80;;;16.33;;
1320;SDS011;653;51.480;11.992;2023-11-18T08:07:56;25.67;;;17.10;;
1320;SDS011;653;51.480;11.992;2023-11-18T08:10:22;23.50;;;15.87;;
1320;SDS011;653;51.480;11.992;2023-11-18T08:12:50;24.23;;;14.33;;
1320;SDS011;653;51.480;11.992;2023-11-18T08:15:17;29.77;;;16.80;;
1320;SDS011;653;51.480;11.992;2023-11-18T08:17:44;24.23;;;14.83;;
1320;SDS011;653;51.480;11.992;2023-11-18T08:20:10;25.73;;;16.10;;
1320;SDS011;653;51.480;11.992;2023-11-18T08:22:41;25.57;;;15.73;;
1320;SDS011;653;51.480;11.992;2023-11-18T08:25:10;25.80;;;15.30;;
1320;SDS011;653;51.480;11.992;2023-11-18T08:27:41;26.50;;;16.10;;
1320;SDS011;653;51.480;11.992;2023-11-18T08:30:07;23.53;;;15.47;;
1320;SDS011;653;51.480;11.992;2023-11-18T08:32:39;25.97;;;16.97;;
1320;SDS011;653;51.480;11.992;2023-11-18T08:35:06;26.73;;;17.63;;
1320;SDS011;653;51.480;11.992;2023-11-18T08:37:36;27.40;;;17.60;;
1320;SDS011;653;51.480;11.992;2023-11-18T08:40:03;29.80;;;17.90;;
1320;SDS011;653;51.480;11.992;2023-11-18T08:42:32;27.23;;;17.60;;
1320;SDS011;653;51.480;11.992;2023-11-18T08:44:59;25.20;;;17.07;;
1320;SDS011;653;51.480;11.992;2023-11-18T08:47:26;24.53;;;16.20;;
1320;SDS011;653;51.480;11.992;2023-11-18T08:49:52;28.90;;;16.87;;
1320;SDS011;653;51.480;11.992;2023-11-18T08:52:18;25.23;;;18.00;;
1320;SDS011;653;51.480;11.992;2023-11-18T08:54:44;26.50;;;17.43;;
1320;SDS011;653;51.480;11.992;2023-11-18T08:57:28;25.40;;;16.50;;
1320;SDS011;653;51.480;11.992;2023-11-18T09:00:03;27.50;;;16.90;;
1320;SDS011;653;51.480;11.992;2023-11-18T09:02:33;30.97;;;17.70;;
1320;SDS011;653;51.480;11.992;2023-11-18T09:05:02;28.23;;;17.10;;
1320;SDS011;653;51.480;11.992;2023-11-18T09:07:31;26.20;;;17.67;;
1320;SDS011;653;51.480;11.992;2023-11-18T09:09:59;27.43;;;17.63;;
1320;SDS011;653;51.480;11.992;2023-11-18T09:12:27;28.60;;;17.27;;
1320;SDS011;653;51.480;11.992;2023-11-18T09:14:53;27.13;;;16.90;;
1320;SDS011;653;51.480;11.992;2023-11-18T09:17:19;24.77;;;16.63;;
1320;SDS011;653;51.480;11.992;2023-11-18T09:19:47;27.37;;;17.60;;
1320;SDS011;653;51.480;11.992;2023-11-18T09:22:13;25.20;;;17.20;;
1320;SDS011;653;51.480;11.992;2023-11-18T09:24:39;24.17;;;16.60;;
1320;SDS011;653;51.480;11.992;2023-11-18T09:27:07;27.30;;;18.90;;
1320;SDS011;653;51.480;11.992;2023-11-18T09:29:34;23.53;;;17.10;;
1320;SDS011;653;51.480;11.992;2023-11-18T09:32:00;23.87;;;16.83;;
1320;SDS011;653;51.480;11.992;2023-11-18T09:34:31;24.73;;;16.03;;
1320;SDS011;653;51.480;11.992;2023-11-18T09:36:58;29.83;;;16.97;;
1320;SDS011;653;51.480;11.992;2023-11-18T09:39:23;24.80;;;16.77;;
1320;SDS011;653;51.480;11.992;2023-11-18T09:42:03;26.27;;;17.20;;
1320;SDS011;653;51.480;11.992;2023-11-18T09:44:34;23.17;;;16.93;;
1320;SDS011;653;51.480;11.992;2023-11-18T09:47:03;26.47;;;15.83;;
1320;SDS011;653;51.480;11.992;2023-11-18T09:49:38;24.70;;;17.20;;
1320;SDS011;653;51.480;11.992;2023-11-18T09:52:06;23.73;;;16.30;;
1320;SDS011;653;51.480;11.992;2023-11-18T09:54:44;29.40;;;18.77;;
1320;SDS011;653;51.480;11.992;2023-11-18T10:00:06;26.23;;;17.30;;
1320;SDS011;653;51.480;11.992;2023-11-18T10:02:46;28.67;;;17.87;;
1320;SDS011;653;51.480;11.992;2023-11-18T10:05:13;21.23;;;15.90;;
1320;SDS011;653;51.480;11.992;2023-11-18T10:07:42;23.90;;;16.43;;
1320;SDS011;653;51.480;11.992;2023-11-18T10:10:10;26.67;;;18.13;;
1320;SDS011;653;51.480;11.992;2023-11-18T10:13:00;27.27;;;18.80;;
1320;SDS011;653;51.480;11.992;2023-11-18T10:15:25;25.23;;;19.03;;
1320;SDS011;653;51.480;11.992;2023-11-18T10:17:52;23.33;;;17.27;;
1320;SDS011;653;51.480;11.992;2023-11-18T10:20:47;24.67;;;16.50;;
1320;SDS011;653;51.480;11.992;2023-11-18T10:23:17;26.70;;;17.30;;
1320;SDS011;653;51.480;11.992;2023-11-18T10:25:54;28.10;;;16.73;;
1320;SDS011;653;51.480;11.992;2023-11-18T10:28:30;23.80;;;16.57;;
1320;SDS011;653;51.480;11.992;2023-11-18T10:31:06;28.23;;;16.03;;
1320;SDS011;653;51.480;11.992;2023-11-18T10:33:35;25.90;;;15.40;;
1320;SDS011;653;51.480;11.992;2023-11-18T10:36:03;23.60;;;17.57;;
1320;SDS011;653;51.480;11.992;2023-11-18T10:38:48;23.60;;;16.10;;
1320;SDS011;653;51.480;11.992;2023-11-18T10:41:21;30.50;;;16.93;;
1320;SDS011;653;51.480;11.992;2023-11-18T10:43:52;29.27;;;17.70;;
1320;SDS011;653;51.480;11.992;2023-11-18T10:47:01;18.93;;;13.83;;
1320;SDS011;653;51.480;11.992;2023-11-18T10:49:28;28.07;;;15.83;;
1320;SDS011;653;51.480;11.992;2023-11-18T10:51:56;21.00;;;14.53;;
1320;SDS011;653;51.480;11.992;2023-11-18T10:54:22;23.47;;;15.57;;
1320;SDS011;653;51.480;11.992;2023-11-18T10:56:51;24.90;;;16.27;;
1320;SDS011;653;51.480;11.992;2023-11-18T10:59:23;20.00;;;14.33;;
1320;SDS011;653;51.480;11.992;2023-11-18T11:01:53;25.37;;;15.80;;
1320;SDS011;653;51.480;11.992;2023-11-18T11:04:23;22.67;;;16.50;;
1320;SDS011;653;51.480;11.992;2023-11-18T11:06:53;16.87;;;14.23;;
1320;SDS011;653;51.480;11.992;2023-11-18T11:09:24;19.90;;;14.77;;
1320;SDS011;653;51.480;11.992;2023-11-18T11:12:04;26.03;;;15.57;;
1320;SDS011;653;51.480;11.992;2023-11-18T11:14:42;19.70;;;14.50;;
1320;SDS011;653;51.480;11.992;2023-11-18T11:17:20;21.70;;;15.10;;
1320;SDS011;653;51.480;11.992;2023-11-18T11:20:09;22.53;;;15.00;;
1320;SDS011;653;51.480;11.992;2023-11-18T11:22:46;18.70;;;14.17;;
1320;SDS011;653;51.480;11.992;2023-11-18T11:35:01;20.97;;;14.40;;
1320;SDS011;653;51.480;11.992;2023-11-18T11:37:33;19.10;;;14.57;;
1320;SDS011;653;51.480;11.992;2023-11-18T11:40:01;18.00;;;12.67;;
1320;SDS011;653;51.480;11.992;2023-11-18T11:42:42;22.80;;;14.87;;
1320;SDS011;653;51.480;11.992;2023-11-18T11:45:09;25.63;;;15.03;;
1320;SDS011;653;51.480;11.992;2023-11-18T11:47:48;20.00;;;14.37;;
1320;SDS011;653;51.480;11.992;2023-11-18T11:50:21;18.53;;;13.27;;
1320;SDS011;653;51.480;11.992;2023-11-18T11:53:07;14.00;;;11.57;;
1320;SDS011;653;51.480;11.992;2023-11-18T11:56:03;12.50;;;10.87;;
1320;SDS011;653;51.480;11.992;2023-11-18T11:58:41;13.00;;;8.27;;
1320;SDS011;653;51.480;11.992;2023-11-18T12:01:21;13.27;;;9.33;;
1320;SDS011;653;51.480;11.992;2023-11-18T12:03:56;13.37;;;9.10;;
1320;SDS011;653;51.480;11.992;2023-11-18T12:06:26;11.83;;;9.03;;
1320;SDS011;653;51.480;11.992;2023-11-18T12:08:54;10.30;;;8.17;;
1320;SDS011;653;51.480;11.992;2023-11-18T12:11:21;8.90;;;7.37;;
1320;SDS011;653;51.480;11.992;2023-11-18T12:19:34;9.23;;;7.47;;
1320;SDS011;653;51.480;11.992;2023-11-18T12:22:18;11.67;;;7.60;;
1320;SDS011;653;51.480;11.992;2023-11-18T12:30:38;10.60;;;8.60;;
1320;SDS011;653;51.480;11.992;2023-11-18T12:42:01;8.93;;;7.13;;
1320;SDS011;653;51.480;11.992;2023-11-18T12:47:49;10.20;;;7.20;;
1320;SDS011;653;51.480;11.992;2023-11-18T12:50:18;9.30;;;6.37;;
1320;SDS011;653;51.480;11.992;2023-11-18T12:52:51;11.33;;;7.67;;
1320;SDS011;653;51.480;11.992;2023-11-18T12:55:17;11.20;;;9.07;;
1320;SDS011;653;51.480;11.992;2023-11-18T12:57:46;12.60;;;8.83;;
1320;SDS011;653;51.480;11.992;2023-11-18T13:00:15;14.90;;;9.90;;
1320;SDS011;653;51.480;11.992;2023-11-18T13:02:53;17.10;;;10.17;;
1320;SDS011;653;51.480;11.992;2023-11-18T13:05:20;12.43;;;8.70;;
1320;SDS011;653;51.480;11.992;2023-11-18T13:07:47;12.30;;;10.07;;
1320;SDS011;653;51.480;11.992;2023-11-18T13:10:14;11.97;;;8.90;;
1320;SDS011;653;51.480;11.992;2023-11-18T13:12:42;12.20;;;8.27;;
1320;SDS011;653;51.480;11.992;2023-11-18T13:15:13;14.60;;;8.63;;
1320;SDS011;653;51.480;11.992;2023-11-18T13:17:56;11.30;;;8.53;;
1320;SDS011;653;51.480;11.992;2023-11-18T13:20:25;10.97;;;8.67;;
1320;SDS011;653;51.480;11.992;2023-11-18T13:22:58;8.90;;;6.93;;
1320;SDS011;653;51.480;11.992;2023-11-18T13:25:27;8.83;;;6.97;;
1320;SDS011;653;51.480;11.992;2023-11-18T13:27:58;9.43;;;6.77;;
1320;SDS011;653;51.480;11.992;2023-11-18T13:30:28;10.07;;;8.10;;
1320;SDS011;653;51.480;11.992;2023-11-18T13:32:56;10.70;;;7.57;;
1320;SDS011;653;51.480;11.992;2023-11-18T13:35:23;9.47;;;7.00;;
1320;SDS011;653;51.480;11.992;2023-11-18T13:37:50;11.10;;;8.57;;
1320;SDS011;653;51.480;11.992;2023-11-18T13:40:20;10.77;;;8.00;;
1320;SDS011;653;51.480;11.992;2023-11-18T13:42:46;9.47;;;7.50;;
1320;SDS011;653;51.480;11.992;2023-11-18T13:45:12;13.70;;;8.80;;
1320;SDS011;653;51.480;11.992;2023-11-18T13:47:51;12.27;;;9.37;;
1320;SDS011;653;51.480;11.992;2023-11-18T13:50:23;10.90;;;8.60;;
1320;SDS011;653;51.480;11.992;2023-11-18T13:52:53;13.30;;;9.23;;
1320;SDS011;653;51.480;11.992;2023-11-18T13:55:28;12.13;;;8.50;;
1320;SDS011;653;51.480;11.992;2023-11-18T13:58:05;14.57;;;9.03;;
1320;SDS011;653;51.480;11.992;2023-11-18T14:00:32;10.17;;;7.37;;
1320;SDS011;653;51.480;11.992;2023-11-18T14:02:58;9.53;;;6.53;;
1320;SDS011;653;51.480;11.992;2023-11-18T14:05:24;11.20;;;8.03;;
1320;SDS011;653;51.480;11.992;2023-11-18T14:07:54;10.00;;;5.80;;
1320;SDS011;653;51.480;11.992;2023-11-18T14:10:27;8.70;;;6.93;;
1320;SDS011;653;51.480;11.992;2023-11-18T14:13:04;11.10;;;6.00;;
1320;SDS011;653;51.480;11.992;2023-11-18T14:15:40;9.00;;;6.97;;
1320;SDS011;653;51.480;11.992;2023-11-18T14:18:11;10.20;;;7.03;;
1320;SDS011;653;51.480;11.992;2023-11-18T14:20:38;14.50;;;6.33;;
1320;SDS011;653;51.480;11.992;2023-11-18T14:23:07;13.63;;;10.37;;
1320;SDS011;653;51.480;11.992;2023-11-18T14:25:36;11.07;;;8.87;;
1320;SDS011;653;51.480;11.992;2023-11-18T14:28:09;16.07;;;11.40;;
1320;SDS011;653;51.480;11.992;2023-11-18T14:30:35;15.97;;;11.80;;
1320;SDS011;653;51.480;11.992;2023-11-18T14:33:10;9.67;;;7.30;;
1320;SDS011;653;51.480;11.992;2023-11-18T14:35:43;11.63;;;7.90;;
1320;SDS011;653;51.480;11.992;2023-11-18T14:38:12;9.80;;;6.70;;
1320;SDS011;653;51.480;11.992;2023-11-18T14:40:40;10.47;;;7.97;;
1320;SDS011;653;51.480;11.992;2023-11-18T14:43:15;11.33;;;8.30;;
1320;SDS011;653;51.480;11.992;2023-11-18T14:45:41;10.70;;;8.27;;
1320;SDS011;653;51.480;11.992;2023-11-18T14:48:08;14.30;;;9.50;;
1320;SDS011;653;51.480;11.992;2023-11-18T14:50:34;15.07;;;9.90;;
1320;SDS011;653;51.480;11.992;2023-11-18T14:53:02;13.77;;;9.67;;
1320;SDS011;653;51.480;11.992;2023-11-18T14:55:41;15.23;;;10.23;;
1320;SDS011;653;51.480;11.992;2023-11-18T14:58:08;13.43;;;10.40;;
1320;SDS011;653;51.480;11.992;2023-11-18T15:00:38;18.90;;;11.10;;
1320;SDS011;653;51.480;11.992;2023-11-18T15:03:15;15.83;;;10.30;;
1320;SDS011;653;51.480;11.992;2023-11-18T15:05:42;19.37;;;12.60;;
1320;SDS011;653;51.480;11.992;2023-11-18T15:08:14;14.30;;;10.70;;
1320;SDS011;653;51.480;11.992;2023-11-18T15:10:49;16.50;;;10.53;;
1320;SDS011;653;51.480;11.992;2023-11-18T15:13:16;12.33;;;9.97;;
1320;SDS011;653;51.480;11.992;2023-11-18T15:15:46;14.97;;;9.93;;
1320;SDS011;653;51.480;11.992;2023-11-18T15:18:20;16.57;;;10.33;;
1320;SDS011;653;51.480;11.992;2023-11-18T15:20:51;14.40;;;9.60;;
1320;SDS011;653;51.480;11.992;2023-11-18T15:23:18;14.37;;;9.80;;
1320;SDS011;653;51.480;11.992;2023-11-18T15:25:56;13.00;;;9.70;;
1320;SDS011;653;51.480;11.992;2023-11-18T15:28:25;12.33;;;8.50;;
1320;SDS011;653;51.480;11.992;2023-11-18T15:30:55;11.83;;;8.70;;
1320;SDS011;653;51.480;11.992;2023-11-18T15:33:22;13.07;;;8.87;;
1320;SDS011;653;51.480;11.992;2023-11-18T15:35:50;13.40;;;9.10;;
1320;SDS011;653;51.480;11.992;2023-11-18T15:38:22;13.27;;;10.10;;
1320;SDS011;653;51.480;11.992;2023-11-18T15:40:48;15.33;;;10.10;;
1320;SDS011;653;51.480;11.992;2023-11-18T15:43:18;12.90;;;9.27;;
1320;SDS011;653;51.480;11.992;2023-11-18T15:46:01;14.37;;;10.50;;
1320;SDS011;653;51.480;11.992;2023-11-18T15:48:28;15.90;;;10.27;;